Lake Clark National Park, AK

9:07 PM AKDT on April 20, 2015 (GMT -0800)
Sparrevohn | | Change Station
CLOSE
Current Station
Airport
Location: Sparrevohn,
Elevation: 1588 ft
Nearby Weather Stations

Elev 1588 ft 61.10 °N, 155.57 °W | Updated 12 minutes ago

Light Snow Showers
Light Showers Snow
28 °F
Feels Like 18 °F
N
13
Wind Variable Wind from South
Gusts 16 mph

Today
High -- | Low -- °F
--% Chance of Precip.
Yesterday
High -- | Low -- °F
Precip. -- in
6:45 AM 9:50 PM
Waxing Crescent, 8% visible
Pressure 29.76 in
Visibility 0.8 miles
Clouds Mostly Cloudy 800 ft
Windchill 18 °F
Dew Point 27 °F
Humidity 94%
Rainfall 0.02 in
Snow Depth Not available.
UV 0 out of 12
Pollen Not available.
Air Quality Not available.
Flu Activity Sporadic
METAR PASV 210455Z AUTO 18011G14KT 3/4SM -SHSN BKN008 M02/M03 A2966 RMK AO2 SHSNB0002E0059B0132E0208B0224 SLP076 P0001 T10201029 $

More Conditions Fewer Conditions

Pressure 29.76 in
Visibility 0.8 miles
Clouds Mostly Cloudy 800 ft
Windchill 18 °F
Dew Point 27 °F
Humidity 94%
Rainfall 0.02 in
Snow Depth Not available.
UV 0 out of 12
Pollen Not available.
Air Quality Not available.
Flu Activity Sporadic
METAR PASV 210455Z AUTO 18011G14KT 3/4SM -SHSN BKN008 M02/M03 A2966 RMK AO2 SHSNB0002E0059B0132E0208B0224 SLP076 P0001 T10201029 $

More Conditions Fewer Conditions

10-Day Weather Forecast

Almanac

Astronomy

Apr. 20, 2015 Rise Set
Actual Time
Civil Twilight
Nautical Twilight
Astronomical Twilight
Moon
Length of Visible Light
Length of Day
Tomorrow will be .
, % of the Moon is Illuminated

Today's Extremes

State Highs State Lows

Community

WunderPhotos

Upload Photos

1,815,316 photos uploaded!

WunderBlogs® & News

Nearby

Air Quality

  Air Quality AQ Index Pollutant
Not available.

Snow Depth

Station Depth Elevation

Earthquake Activity

City Distance Mag. Time & Date
Minimum magnitude displayed is 2.5.

Coastal Water Temperatures

Place Temperature

Stations

Nearby Weather Stations

Station Location Temp. Windchill Dew Point Humidity Wind Precip. Elev Updated Type